Time;durP1;ratioP1;P1;durP2;ratioP2;P2;SDS_P1;SDS_P2;PMS_P1;PMS_P2;Temp;Humidity;BMP_temperature;BMP_pressure;BME280_temperature;BME280_humidity;BME280_pressure;Samples;Min_cycle;Max_cycle;Signal;HPM_P1;HPM_P2
2023/12/02 00:01:05;;;;;;;17.60;11.87;;;;;;;-5.18;100.00;94467.19;7398520;19;20398;-93
2023/12/02 00:03:32;;;;;;;17.70;11.03;;;;;;;-5.29;100.00;94470.91;7399011;19;20711;-95
2023/12/02 00:05:59;;;;;;;22.83;11.87;;;;;;;-4.63;100.00;94568.16;7399134;19;20702;-94
2023/12/02 00:08:27;;;;;;;20.33;12.07;;;;;;;-5.75;100.00;94407.72;7397804;19;20452;-95
2023/12/02 00:10:54;;;;;;;19.03;12.97;;;;;;;-6.12;100.00;94364.63;7398344;19;20412;-94
2023/12/02 00:13:21;;;;;;;15.80;11.73;;;;;;;-5.22;100.00;94507.38;7398685;19;20381;-95
2023/12/02 00:15:49;;;;;;;16.57;12.00;;;;;;;-5.82;100.00;94391.09;7398373;19;20423;-94
2023/12/02 00:18:16;;;;;;;18.60;11.70;;;;;;;-5.02;100.00;94534.78;7398625;19;20434;-94
2023/12/02 00:20:44;;;;;;;15.27;10.80;;;;;;;-5.56;100.00;94414.78;7398532;19;20415;-94
2023/12/02 00:23:11;;;;;;;18.93;12.37;;;;;;;-6.30;100.00;94335.19;7398342;19;20451;-94
2023/12/02 00:25:39;;;;;;;26.40;12.90;;;;;;;-5.01;100.00;94521.63;7398634;19;20418;-95
2023/12/02 00:28:06;;;;;;;18.33;10.97;;;;;;;-5.93;100.00;94369.09;7397401;19;20372;-95
2023/12/02 00:30:33;;;;;;;21.33;12.17;;;;;;;-6.11;100.00;94353.31;7397803;19;20474;-95
2023/12/02 00:33:01;;;;;;;23.47;14.57;;;;;;;-5.47;100.00;94439.66;7398097;19;20413;-94
2023/12/02 00:35:29;;;;;;;17.53;12.70;;;;;;;-5.87;100.00;94366.19;7398151;19;20368;-93
2023/12/02 00:37:56;;;;;;;22.40;12.37;;;;;;;-5.97;100.00;94395.34;7397918;19;20715;-95
2023/12/02 00:40:23;;;;;;;18.10;12.33;;;;;;;-6.29;100.00;94336.72;7397785;19;20365;-94
2023/12/02 00:42:51;;;;;;;20.00;11.60;;;;;;;-5.55;100.00;94447.19;7397783;19;20397;-94
2023/12/02 00:45:18;;;;;;;19.27;11.50;;;;;;;-4.97;100.00;94511.53;7398179;19;20900;-95
2023/12/02 00:47:48;;;;;;;19.70;12.30;;;;;;;-5.51;100.00;94456.69;7397209;19;20877;-95
2023/12/02 00:50:16;;;;;;;20.53;12.30;;;;;;;-5.53;100.00;94448.47;7397265;19;20383;-94
2023/12/02 00:52:43;;;;;;;20.90;13.17;;;;;;;-5.96;100.00;94358.31;7397438;19;20384;-90
2023/12/02 00:55:10;;;;;;;23.47;12.80;;;;;;;-5.54;100.00;94438.44;7396270;19;20393;-90
2023/12/02 00:57:37;;;;;;;20.57;12.90;;;;;;;-5.49;100.00;94446.88;7396829;19;20473;-91
2023/12/02 01:00:05;;;;;;;21.10;14.30;;;;;;;-6.45;100.00;94322.47;7397834;19;20464;-91
2023/12/02 01:02:33;;;;;;;18.00;13.27;;;;;;;-6.29;100.00;94344.44;7400885;19;20480;-90
2023/12/02 01:05:02;;;;;;;18.23;12.50;;;;;;;-5.41;100.00;94479.75;7404135;19;20854;-92
2023/12/02 01:07:30;;;;;;;19.30;13.40;;;;;;;-5.99;100.00;94394.09;7404321;19;20386;-92
2023/12/02 01:09:57;;;;;;;23.27;14.00;;;;;;;-5.11;100.00;94519.91;7405831;19;20389;-92
2023/12/02 01:12:27;;;;;;;24.87;15.53;;;;;;;-5.44;100.00;94464.09;7401275;19;20375;-92
2023/12/02 01:14:54;;;;;;;22.00;12.60;;;;;;;-5.35;100.00;94480.47;7405060;19;20388;-92
2023/12/02 01:17:22;;;;;;;22.40;13.20;;;;;;;-5.49;100.00;94443.53;7403766;19;20934;-92
2023/12/02 01:19:49;;;;;;;19.20;12.60;;;;;;;-5.96;100.00;94393.56;7402383;19;20400;-93
2023/12/02 01:22:17;;;;;;;20.00;12.60;;;;;;;-5.52;100.00;94433.78;7401747;19;20412;-91
2023/12/02 01:24:44;;;;;;;19.73;11.40;;;;;;;-6.42;100.00;94319.34;7403378;19;20384;-91
2023/12/02 01:27:12;;;;;;;19.33;13.70;;;;;;;-6.10;100.00;94375.41;7404081;19;20366;-91
2023/12/02 01:29:39;;;;;;;19.90;11.47;;;;;;;-6.38;100.00;94338.34;7405145;19;20423;-91
2023/12/02 01:32:06;;;;;;;15.30;11.53;;;;;;;-5.39;100.00;94477.69;7401364;19;20409;-92
2023/12/02 01:34:34;;;;;;;25.90;15.13;;;;;;;-5.44;100.00;94485.47;7403069;19;20377;-92
2023/12/02 01:37:01;;;;;;;16.30;11.57;;;;;;;-5.58;100.00;94451.09;7404889;19;20491;-92
2023/12/02 01:39:29;;;;;;;21.90;13.60;;;;;;;-5.79;100.00;94434.28;7403190;19;20923;-91
2023/12/02 01:41:56;;;;;;;23.53;15.03;;;;;;;-5.38;100.00;94489.50;7401231;19;20416;-91
2023/12/02 01:44:24;;;;;;;20.77;13.67;;;;;;;-5.45;100.00;94467.72;7402731;19;20891;-91
2023/12/02 01:46:51;;;;;;;21.97;12.43;;;;;;;-5.54;100.00;94428.91;7403361;19;20377;-92
2023/12/02 01:49:20;;;;;;;24.17;14.00;;;;;;;-5.60;100.00;94448.03;7402271;19;20454;-92
2023/12/02 01:51:48;;;;;;;18.43;12.53;;;;;;;-5.43;100.00;94473.34;7401202;19;20401;-91
2023/12/02 01:54:17;;;;;;;20.33;12.50;;;;;;;-5.75;100.00;94458.41;7402207;19;20910;-91
2023/12/02 01:56:44;;;;;;;21.80;13.57;;;;;;;-5.30;100.00;94508.00;7402606;19;20405;-91
2023/12/02 01:59:27;;;;;;;22.27;13.07;;;;;;;-5.65;100.00;94466.84;7403143;19;20365;-92
2023/12/02 02:01:54;;;;;;;20.97;12.97;;;;;;;-5.50;100.00;94463.34;7400878;19;20997;-84
2023/12/02 02:04:23;;;;;;;28.87;16.03;;;;;;;-5.83;100.00;94441.00;7400992;19;20382;-90
2023/12/02 02:06:50;;;;;;;18.60;12.70;;;;;;;-5.54;100.00;94462.38;7401504;19;20386;-90
2023/12/02 02:09:17;;;;;;;20.83;13.07;;;;;;;-5.40;100.00;94498.53;7399832;19;20879;-89
2023/12/02 02:11:49;;;;;;;19.13;12.50;;;;;;;-5.46;100.00;94479.06;7399922;19;20411;-90
2023/12/02 02:14:16;;;;;;;18.53;13.10;;;;;;;-5.97;100.00;94408.22;7400265;19;20449;-90
2023/12/02 02:16:43;;;;;;;20.90;12.57;;;;;;;-5.93;100.00;94407.66;7401970;19;20409;-90
2023/12/02 02:19:11;;;;;;;17.50;12.80;;;;;;;-4.98;100.00;94557.13;7401768;19;20874;-89
2023/12/02 02:21:39;;;;;;;17.73;12.23;;;;;;;-5.98;100.00;94409.25;7400064;19;20405;-90
2023/12/02 02:24:09;;;;;;;23.03;12.37;;;;;;;-5.74;100.00;94449.69;7402160;19;20405;-90
2023/12/02 02:26:37;;;;;;;19.83;11.70;;;;;;;-6.07;100.00;94413.44;7400957;19;20461;-90
2023/12/02 02:29:04;;;;;;;23.57;14.17;;;;;;;-5.89;100.00;94449.78;7399323;19;20447;-91
2023/12/02 02:31:33;;;;;;;20.57;11.63;;;;;;;-6.05;100.00;94419.06;7399468;19;20947;-90
2023/12/02 02:34:00;;;;;;;20.03;11.40;;;;;;;-6.29;100.00;94375.28;7401816;19;20395;-90
2023/12/02 02:36:27;;;;;;;17.17;9.97;;;;;;;-5.63;100.00;94469.13;7401154;19;20389;-90
2023/12/02 02:38:55;;;;;;;17.57;12.90;;;;;;;-5.35;100.00;94531.97;7400706;19;20402;-90
2023/12/02 02:41:22;;;;;;;19.80;12.53;;;;;;;-5.64;100.00;94490.75;7400145;19;20405;-91
2023/12/02 02:43:50;;;;;;;19.70;12.00;;;;;;;-5.87;100.00;94433.06;7400556;19;20373;-90
2023/12/02 02:46:18;;;;;;;23.10;13.23;;;;;;;-5.81;100.00;94455.13;7401253;19;20391;-91
2023/12/02 02:48:45;;;;;;;16.83;12.63;;;;;;;-6.37;100.00;94370.72;7399739;19;20385;-90
2023/12/02 02:51:12;;;;;;;23.07;12.50;;;;;;;-5.66;100.00;94488.47;7399512;19;20416;-91
2023/12/02 02:53:40;;;;;;;12.57;7.40;;;;;;;-6.96;100.00;94276.56;7402195;19;20381;-90
2023/12/02 02:56:08;;;;;;;15.67;10.00;;;;;;;-5.59;100.00;94483.00;7400376;19;20376;-91
2023/12/02 02:58:36;;;;;;;19.60;11.70;;;;;;;-5.91;100.00;94444.94;7400723;19;20380;-89
2023/12/02 03:01:04;;;;;;;20.50;12.30;;;;;;;-5.44;100.00;94503.47;7400593;19;20390;-90
2023/12/02 03:03:31;;;;;;;20.07;13.17;;;;;;;-5.74;100.00;94458.19;7401977;19;20382;-90
2023/12/02 03:05:59;;;;;;;20.03;12.07;;;;;;;-5.84;100.00;94432.53;7399890;19;20383;-90
2023/12/02 03:08:26;;;;;;;19.33;13.07;;;;;;;-6.28;100.00;94371.69;7399320;19;20402;-89
2023/12/02 03:10:54;;;;;;;20.40;12.07;;;;;;;-6.05;100.00;94413.16;7398736;19;20417;-90
2023/12/02 03:13:21;;;;;;;18.00;13.83;;;;;;;-6.07;100.00;94394.66;7399597;19;20457;-90
2023/12/02 03:15:49;;;;;;;19.80;12.77;;;;;;;-6.18;100.00;94385.50;7399678;19;20389;-90
2023/12/02 03:18:16;;;;;;;18.20;12.40;;;;;;;-6.05;100.00;94411.34;7399462;19;20405;-90
2023/12/02 03:20:44;;;;;;;17.03;11.47;;;;;;;-6.21;100.00;94393.75;7399210;19;20407;-90
2023/12/02 03:23:11;;;;;;;17.50;11.60;;;;;;;-6.50;100.00;94343.06;7399560;19;20357;-90
2023/12/02 03:25:38;;;;;;;19.50;12.90;;;;;;;-6.07;100.00;94440.94;7396345;19;20446;-90
2023/12/02 03:28:06;;;;;;;25.43;14.00;;;;;;;-5.33;100.00;94542.00;7398752;19;20377;-91
2023/12/02 03:30:33;;;;;;;18.30;11.70;;;;;;;-6.18;100.00;94424.06;7398414;19;20394;-89
2023/12/02 03:33:02;;;;;;;20.10;14.00;;;;;;;-6.52;100.00;94390.63;7398762;19;20393;-91
2023/12/02 03:35:29;;;;;;;20.13;12.40;;;;;;;-6.17;100.00;94453.88;7398590;19;20879;-90
2023/12/02 03:37:57;;;;;;;18.70;13.13;;;;;;;-6.31;100.00;94399.72;7398467;19;20873;-90
2023/12/02 03:40:24;;;;;;;21.60;15.27;;;;;;;-6.57;100.00;94366.47;7398677;19;20392;-91
2023/12/02 03:42:52;;;;;;;21.83;15.23;;;;;;;-6.38;100.00;94406.97;7398559;19;20846;-91
2023/12/02 03:45:19;;;;;;;21.20;13.37;;;;;;;-6.34;100.00;94415.69;7400020;19;20365;-91
2023/12/02 03:47:47;;;;;;;23.47;12.10;;;;;;;-6.34;100.00;94438.81;7398812;19;20366;-92
2023/12/02 03:50:14;;;;;;;22.43;13.17;;;;;;;-6.34;100.00;94426.72;7396732;19;20464;-90
2023/12/02 03:52:45;;;;;;;24.00;12.47;;;;;;;-5.67;100.00;94522.19;7400252;19;20375;-91
2023/12/02 03:55:13;;;;;;;25.80;14.23;;;;;;;-6.38;100.00;94396.69;7398366;19;20384;-90
2023/12/02 03:57:40;;;;;;;23.00;13.63;;;;;;;-6.42;100.00;94403.38;7398061;19;20359;-90
2023/12/02 04:00:11;;;;;;;19.63;12.97;;;;;;;-5.89;100.00;94517.44;7398497;19;20405;-90
2023/12/02 04:02:40;;;;;;;19.53;12.60;;;;;;;-5.45;100.00;94566.28;7397867;19;20357;-89
2023/12/02 04:05:08;;;;;;;23.93;14.93;;;;;;;-5.57;100.00;94534.97;7397833;19;20375;-90
2023/12/02 04:07:37;;;;;;;18.80;12.40;;;;;;;-5.61;100.00;94539.09;7399357;19;20368;-91
2023/12/02 04:10:05;;;;;;;17.40;10.43;;;;;;;-5.62;100.00;94554.81;7396342;19;20455;-91
2023/12/02 04:12:34;;;;;;;25.97;12.60;;;;;;;-6.15;100.00;94485.22;7395697;19;20424;-90
2023/12/02 04:15:01;;;;;;;22.90;11.07;;;;;;;-6.02;100.00;94515.47;7397276;19;20429;-91
2023/12/02 04:17:29;;;;;;;20.87;13.30;;;;;;;-5.51;100.00;94582.03;7397172;19;20373;-90
2023/12/02 04:19:56;;;;;;;25.50;15.00;;;;;;;-6.42;100.00;94452.97;7395816;19;20405;-91
2023/12/02 04:22:24;;;;;;;21.20;12.03;;;;;;;-6.65;100.00;94435.66;7396302;19;20443;-92
2023/12/02 04:24:51;;;;;;;21.53;13.67;;;;;;;-5.53;100.00;94589.25;7397423;19;20405;-90
2023/12/02 04:27:19;;;;;;;18.30;9.30;;;;;;;-6.36;100.00;94469.16;7397002;19;20396;-91
2023/12/02 04:29:47;;;;;;;18.33;12.40;;;;;;;-6.40;100.00;94475.88;7395714;19;20392;-91
2023/12/02 04:32:14;;;;;;;19.57;13.20;;;;;;;-6.77;100.00;94432.63;7395658;19;20920;-90
2023/12/02 04:34:41;;;;;;;22.73;14.30;;;;;;;-6.31;100.00;94498.16;7397232;19;20384;-90
2023/12/02 04:37:09;;;;;;;27.93;15.80;;;;;;;-6.18;100.00;94498.63;7395606;19;20410;-90
2023/12/02 04:39:37;;;;;;;17.00;12.47;;;;;;;-6.08;100.00;94537.91;7398639;19;20365;-90
2023/12/02 04:42:04;;;;;;;22.20;11.90;;;;;;;-5.89;100.00;94573.25;7394864;19;20406;-90
2023/12/02 04:44:32;;;;;;;20.97;12.33;;;;;;;-6.32;100.00;94508.72;7396663;19;20372;-90
2023/12/02 04:47:00;;;;;;;20.63;14.60;;;;;;;-6.44;100.00;94482.56;7396452;19;20378;-90
2023/12/02 04:49:28;;;;;;;23.93;13.00;;;;;;;-6.47;100.00;94465.09;7396078;19;20373;-90
2023/12/02 04:51:55;;;;;;;20.10;13.47;;;;;;;-6.74;100.00;94434.66;7395753;19;20393;-91
2023/12/02 04:54:23;;;;;;;20.70;13.60;;;;;;;-6.62;100.00;94455.66;7396471;19;20365;-90
2023/12/02 04:56:50;;;;;;;18.43;13.10;;;;;;;-6.51;100.00;94470.00;7396369;19;20394;-90
2023/12/02 04:59:18;;;;;;;21.53;13.73;;;;;;;-6.11;100.00;94543.59;7397939;19;20357;-91
2023/12/02 05:01:45;;;;;;;21.13;12.80;;;;;;;-7.24;100.00;94379.91;7395050;19;20894;-90
2023/12/02 05:04:12;;;;;;;19.37;14.40;;;;;;;-6.46;100.00;94482.06;7396111;19;20377;-90
2023/12/02 05:06:40;;;;;;;19.83;10.87;;;;;;;-6.76;100.00;94436.72;7396594;19;20398;-90
2023/12/02 05:09:08;;;;;;;24.03;15.00;;;;;;;-6.54;100.00;94467.97;7395078;19;20402;-90
2023/12/02 05:11:35;;;;;;;21.57;12.27;;;;;;;-6.19;100.00;94508.13;7395238;19;20435;-90
2023/12/02 05:14:02;;;;;;;22.17;12.70;;;;;;;-6.64;100.00;94452.59;7395560;19;20376;-90
2023/12/02 05:16:30;;;;;;;14.27;11.33;;;;;;;-6.68;100.00;94464.41;7397971;19;20365;-90
2023/12/02 05:18:57;;;;;;;19.27;11.63;;;;;;;-7.11;100.00;94397.31;7394584;19;20855;-90
2023/12/02 05:21:25;;;;;;;20.67;14.17;;;;;;;-6.20;100.00;94537.44;7395395;19;20430;-90
2023/12/02 05:23:52;;;;;;;18.57;11.50;;;;;;;-6.63;100.00;94488.31;7397254;19;20376;-90
2023/12/02 05:26:20;;;;;;;17.70;13.60;;;;;;;-6.71;100.00;94480.38;7395333;19;20477;-91
2023/12/02 05:28:47;;;;;;;18.47;12.17;;;;;;;-6.33;100.00;94527.75;7394856;19;20401;-90
2023/12/02 05:31:14;;;;;;;19.30;13.33;;;;;;;-7.69;100.00;94332.09;7395850;19;20401;-91
2023/12/02 05:33:41;;;;;;;19.00;13.17;;;;;;;-7.17;100.00;94427.38;7395327;19;20388;-90
2023/12/02 05:36:09;;;;;;;23.00;12.70;;;;;;;-7.03;100.00;94448.13;7396300;19;20376;-89
2023/12/02 05:38:37;;;;;;;13.03;8.80;;;;;;;-6.70;100.00;94487.81;7397739;19;20397;-90
2023/12/02 05:41:05;;;;;;;20.37;13.40;;;;;;;-6.57;100.00;94527.59;7395293;19;20409;-90
2023/12/02 05:43:32;;;;;;;17.60;13.07;;;;;;;-6.84;100.00;94491.97;7396097;19;20388;-90
2023/12/02 05:46:00;;;;;;;19.03;13.23;;;;;;;-5.71;100.00;94657.56;7396256;19;20385;-90
2023/12/02 05:48:27;;;;;;;19.93;12.77;;;;;;;-6.45;100.00;94546.03;7397905;19;20378;-89
2023/12/02 05:50:55;;;;;;;18.13;12.70;;;;;;;-6.38;100.00;94579.19;7399419;19;20373;-90
2023/12/02 05:53:23;;;;;;;24.27;13.37;;;;;;;-5.70;100.00;94674.53;7401715;19;20866;-90
2023/12/02 05:55:50;;;;;;;11.57;8.20;;;;;;;-6.69;100.00;94538.16;7402396;19;20383;-90
2023/12/02 05:58:18;;;;;;;20.40;12.80;;;;;;;-6.26;100.00;94584.78;7402710;19;20389;-91
2023/12/02 06:00:45;;;;;;;17.20;10.93;;;;;;;-6.32;100.00;94609.72;7400905;19;20452;-90
2023/12/02 06:03:13;;;;;;;22.13;13.57;;;;;;;-6.24;100.00;94605.84;7402360;19;20388;-90
2023/12/02 06:05:41;;;;;;;23.70;14.47;;;;;;;-6.35;100.00;94596.66;7403391;19;20441;-91
2023/12/02 06:08:08;;;;;;;26.37;15.20;;;;;;;-6.37;100.00;94614.91;7401552;19;20387;-90
2023/12/02 06:10:35;;;;;;;12.70;7.73;;;;;;;-6.91;100.00;94517.94;7398969;19;20432;-92
2023/12/02 06:13:03;;;;;;;19.70;14.63;;;;;;;-6.73;100.00;94556.94;7401847;19;20385;-91
2023/12/02 06:15:30;;;;;;;19.60;13.57;;;;;;;-6.52;100.00;94566.13;7402116;19;20380;-91
2023/12/02 06:17:57;;;;;;;18.57;13.13;;;;;;;-6.40;100.00;94594.88;7401088;19;20399;-90
2023/12/02 06:20:25;;;;;;;20.33;13.00;;;;;;;-6.66;100.00;94540.22;7401274;19;20404;-90
2023/12/02 06:22:53;;;;;;;22.07;12.93;;;;;;;-6.23;100.00;94624.63;7401484;19;20857;-90
2023/12/02 06:25:20;;;;;;;16.97;13.27;;;;;;;-6.30;100.00;94597.38;7401128;19;20374;-90
2023/12/02 06:27:48;;;;;;;14.77;9.73;;;;;;;-6.98;100.00;94485.84;7402768;19;20361;-91
2023/12/02 06:30:17;;;;;;;17.70;13.33;;;;;;;-7.11;100.00;94476.91;7399991;19;20404;-90
2023/12/02 06:32:44;;;;;;;22.40;14.00;;;;;;;-6.38;100.00;94576.59;7401144;19;20801;-90
2023/12/02 06:35:12;;;;;;;23.57;13.40;;;;;;;-6.41;100.00;94571.97;7401169;19;20452;-90
2023/12/02 06:37:39;;;;;;;18.43;13.20;;;;;;;-6.55;100.00;94579.47;7401046;19;20697;-90
2023/12/02 06:40:07;;;;;;;20.13;14.30;;;;;;;-6.32;100.00;94614.09;7400982;19;20402;-89
2023/12/02 06:42:34;;;;;;;26.60;14.90;;;;;;;-6.61;100.00;94577.97;7400636;19;20845;-89
2023/12/02 06:45:03;;;;;;;18.40;13.50;;;;;;;-6.72;100.00;94579.78;7400910;19;20384;-89
2023/12/02 06:47:31;;;;;;;17.33;12.60;;;;;;;-6.98;100.00;94550.03;7400411;19;20392;-90
2023/12/02 06:49:58;;;;;;;19.90;11.63;;;;;;;-6.67;100.00;94613.19;7399233;19;20756;-90
2023/12/02 06:52:26;;;;;;;23.17;14.53;;;;;;;-7.20;100.00;94529.81;7398195;19;20465;-90
2023/12/02 06:54:53;;;;;;;20.37;10.27;;;;;;;-6.13;100.00;94694.03;7400769;19;20389;-90
2023/12/02 06:57:23;;;;;;;14.00;10.00;;;;;;;-6.66;100.00;94645.56;7402305;19;20354;-91
2023/12/02 06:59:53;;;;;;;20.80;13.90;;;;;;;-7.00;100.00;94591.38;7399985;19;20385;-90
2023/12/02 07:02:21;;;;;;;21.27;13.60;;;;;;;-6.99;100.00;94594.72;7398703;19;20476;-90
2023/12/02 07:04:48;;;;;;;28.40;19.07;;;;;;;-6.58;100.00;94657.84;7399690;19;20379;-89
2023/12/02 07:07:16;;;;;;;21.07;13.83;;;;;;;-6.36;100.00;94695.34;7399469;19;20389;-89
2023/12/02 07:09:43;;;;;;;19.27;11.60;;;;;;;-6.53;100.00;94669.19;7399013;19;20400;-91
2023/12/02 07:12:10;;;;;;;20.67;11.20;;;;;;;-6.84;100.00;94630.66;7398665;19;20397;-92
2023/12/02 07:14:38;;;;;;;23.60;15.30;;;;;;;-6.56;100.00;94660.94;7399996;19;20390;-88
2023/12/02 07:17:05;;;;;;;21.27;14.50;;;;;;;-7.12;100.00;94569.56;7401606;19;20406;-89
2023/12/02 07:19:32;;;;;;;24.07;17.50;;;;;;;-7.21;100.00;94554.72;7397423;19;20422;-89
2023/12/02 07:21:59;;;;;;;22.73;13.90;;;;;;;-6.63;100.00;94641.69;7398961;19;20380;-88
2023/12/02 07:24:26;;;;;;;23.63;13.63;;;;;;;-7.17;100.00;94566.00;7400646;19;20881;-88
2023/12/02 07:26:54;;;;;;;21.27;13.63;;;;;;;-6.46;100.00;94667.09;7398796;19;20409;-88
2023/12/02 07:29:21;;;;;;;16.90;11.47;;;;;;;-6.97;100.00;94593.44;7400029;19;20437;-89
2023/12/02 07:32:08;;;;;;;19.23;14.30;;;;;;;-6.55;100.00;94634.19;7397084;19;20423;-89
2023/12/02 07:34:35;;;;;;;20.87;15.40;;;;;;;-6.44;100.00;94675.31;7399391;19;20642;-89
2023/12/02 07:37:03;;;;;;;16.67;12.43;;;;;;;-6.04;100.00;94742.06;7398158;19;20369;-90
2023/12/02 07:39:31;;;;;;;20.33;13.13;;;;;;;-6.87;100.00;94624.25;7399194;19;20376;-91
2023/12/02 07:41:58;;;;;;;18.70;15.77;;;;;;;-6.88;100.00;94609.88;7397146;19;20920;-89
2023/12/02 07:44:25;;;;;;;52.93;29.73;;;;;;;-6.76;100.00;94634.50;7398967;19;20460;-90
2023/12/02 07:46:53;;;;;;;11.77;8.37;;;;;;;-7.15;100.00;94581.91;7398125;19;20375;-90
2023/12/02 07:49:20;;;;;;;22.20;12.00;;;;;;;-6.85;100.00;94632.47;7397984;19;20377;-91
2023/12/02 07:51:48;;;;;;;16.60;10.87;;;;;;;-6.48;100.00;94689.72;7396520;19;20487;-90
2023/12/02 07:54:15;;;;;;;18.67;13.37;;;;;;;-6.83;100.00;94639.91;7398159;19;20385;-90
2023/12/02 07:56:42;;;;;;;16.90;11.73;;;;;;;-6.71;100.00;94688.44;7398639;19;20389;-90
2023/12/02 07:59:10;;;;;;;17.50;9.63;;;;;;;-6.97;100.00;94644.03;7397613;19;20384;-90
2023/12/02 08:01:37;;;;;;;23.97;14.70;;;;;;;-6.69;100.00;94694.09;7396898;19;20444;-90
2023/12/02 08:04:05;;;;;;;24.57;15.03;;;;;;;-6.87;100.00;94690.25;7398484;19;20381;-90
2023/12/02 08:06:33;;;;;;;18.17;10.43;;;;;;;-6.82;100.00;94725.44;7398283;19;20384;-90
2023/12/02 08:09:00;;;;;;;15.87;9.50;;;;;;;-6.95;100.00;94688.94;7398014;19;20388;-90
2023/12/02 08:11:27;;;;;;;19.10;12.40;;;;;;;-7.42;100.00;94614.75;7394418;19;20448;-90
2023/12/02 08:13:55;;;;;;;11.80;8.93;;;;;;;-6.75;100.00;94719.03;7397569;19;20873;-90
2023/12/02 08:16:22;;;;;;;20.43;12.97;;;;;;;-7.01;100.00;94673.81;7397136;19;20383;-89
2023/12/02 08:18:50;;;;;;;20.60;11.73;;;;;;;-6.83;100.00;94708.47;7396485;19;20715;-90
2023/12/02 08:21:17;;;;;;;24.47;13.13;;;;;;;-7.17;100.00;94670.47;7396983;19;20422;-90
2023/12/02 08:23:44;;;;;;;21.77;13.33;;;;;;;-6.68;100.00;94737.50;7396780;19;20380;-90
2023/12/02 08:26:11;;;;;;;21.47;12.90;;;;;;;-6.79;100.00;94730.06;7396848;19;20384;-90
2023/12/02 08:28:39;;;;;;;20.77;12.70;;;;;;;-6.99;100.00;94702.56;7397602;19;20385;-90
2023/12/02 08:31:07;;;;;;;19.97;12.37;;;;;;;-7.02;100.00;94721.06;7395977;19;20429;-90
2023/12/02 08:33:34;;;;;;;14.97;10.00;;;;;;;-7.69;100.00;94625.25;7397218;19;20397;-91
2023/12/02 08:36:01;;;;;;;15.63;10.03;;;;;;;-7.29;100.00;94678.41;7397532;19;20373;-90
2023/12/02 08:38:30;;;;;;;19.60;12.23;;;;;;;-6.89;100.00;94718.00;7397055;19;20384;-90
2023/12/02 08:40:57;;;;;;;21.70;14.20;;;;;;;-6.35;100.00;94784.28;7396565;19;20441;-89
2023/12/02 08:43:24;;;;;;;26.23;13.40;;;;;;;-6.83;100.00;94678.44;7398172;19;20386;-90
2023/12/02 08:45:52;;;;;;;11.93;9.53;;;;;;;-6.50;100.00;94769.63;7396901;19;20393;-90
2023/12/02 08:48:19;;;;;;;21.40;12.80;;;;;;;-6.40;100.00;94795.34;7398120;19;20372;-90
2023/12/02 08:50:46;;;;;;;20.77;13.10;;;;;;;-6.26;100.00;94809.22;7395052;19;20420;-90
2023/12/02 08:53:14;;;;;;;18.70;11.73;;;;;;;-6.75;100.00;94743.94;7396431;19;20398;-90
2023/12/02 08:55:42;;;;;;;18.80;13.27;;;;;;;-5.89;100.00;94856.22;7396000;19;20393;-90
2023/12/02 08:58:09;;;;;;;22.93;13.27;;;;;;;-6.15;100.00;94814.34;7396387;19;20461;-89
2023/12/02 09:00:37;;;;;;;17.20;13.90;;;;;;;-6.68;100.00;94754.72;7395723;19;20364;-90
2023/12/02 09:03:04;;;;;;;17.90;12.97;;;;;;;-7.78;100.00;94581.34;7396120;19;20406;-90
2023/12/02 09:05:31;;;;;;;13.97;8.97;;;;;;;-7.26;100.00;94675.34;7396210;19;20384;-90
2023/12/02 09:08:01;;;;;;;25.00;14.53;;;;;;;-6.87;100.00;94734.69;7396104;19;20392;-91
2023/12/02 09:10:31;;;;;;;18.90;11.77;;;;;;;-7.26;100.00;94707.94;7394431;19;20781;-90
2023/12/02 09:12:59;;;;;;;23.40;13.33;;;;;;;-7.94;100.00;94584.16;7395831;19;20396;-91
2023/12/02 09:15:44;;;;;;;13.73;10.23;;;;;;;-7.20;100.00;94746.19;7395864;19;20359;-90
2023/12/02 09:18:12;;;;;;;20.80;14.23;;;;;;;-7.40;100.00;94686.34;7395208;19;20918;-91
2023/12/02 09:20:45;;;;;;;20.30;12.27;;;;;;;-6.17;100.00;94871.16;7394937;19;20965;-90
2023/12/02 09:23:16;;;;;;;19.60;12.83;;;;;;;-6.08;100.00;94869.63;7401446;19;20448;-90
2023/12/02 09:25:45;;;;;;;17.00;11.77;;;;;;;-7.36;100.00;94702.78;7403227;19;20392;-90
2023/12/02 09:28:15;;;;;;;18.37;12.13;;;;;;;-6.90;100.00;94753.16;7402760;19;20389;-91
2023/12/02 09:30:57;;;;;;;23.90;8.33;;;;;;;-6.07;100.00;94872.97;7402101;19;20415;-90
2023/12/02 09:33:36;;;;;;;22.13;13.57;;;;;;;-6.42;100.00;94796.59;7403112;19;20381;-90
2023/12/02 09:36:06;;;;;;;19.60;12.40;;;;;;;-6.92;100.00;94706.44;7402797;19;20383;-90
2023/12/02 09:38:33;;;;;;;20.37;12.10;;;;;;;-6.77;100.00;94753.69;7404539;19;20397;-91
2023/12/02 09:41:19;;;;;;;26.93;15.80;;;;;;;-5.94;100.00;94887.13;7401866;19;20409;-91
2023/12/02 09:44:11;;;;;;;22.50;11.20;;;;;;;-5.78;100.00;94886.06;7402247;19;20398;-90
2023/12/02 09:46:57;;;;;;;20.03;13.90;;;;;;;-6.50;100.00;94756.78;7402601;19;20408;-90
2023/12/02 09:49:31;;;;;;;9.87;8.87;;;;;;;-5.73;100.00;94878.34;7402697;19;20416;-90
2023/12/02 09:52:24;;;;;;;19.30;13.67;;;;;;;-5.79;100.00;94882.72;7400326;19;20411;-90
2023/12/02 09:55:07;;;;;;;19.17;13.90;;;;;;;-5.84;100.00;94864.72;7401834;19;20406;-90
2023/12/02 09:57:51;;;;;;;18.13;11.23;;;;;;;-5.78;100.00;94880.91;7403987;19;20369;-90
2023/12/02 10:00:39;;;;;;;24.20;12.17;;;;;;;-6.75;100.00;94734.44;7401524;19;20389;-90
2023/12/02 10:03:34;;;;;;;16.87;10.47;;;;;;;-5.83;100.00;94886.06;7401601;19;20607;-90
2023/12/02 10:06:33;;;;;;;15.00;11.17;;;;;;;-6.01;100.00;94874.50;7401480;19;20875;-90
2023/12/02 10:09:29;;;;;;;15.60;7.63;;;;;;;-6.11;100.00;94866.81;7401354;19;20408;-90
2023/12/02 10:12:03;;;;;;;14.83;10.33;;;;;;;-5.80;100.00;94886.31;7398736;19;20463;-90
2023/12/02 10:14:33;;;;;;;13.73;10.30;;;;;;;-6.70;100.00;94752.41;7402326;19;20392;-90
2023/12/02 10:17:05;;;;;;;17.10;11.03;;;;;;;-6.42;100.00;94787.09;7401290;19;20455;-91
2023/12/02 10:19:56;;;;;;;17.33;10.80;;;;;;;-6.64;100.00;94763.47;7399987;19;20427;-90
2023/12/02 10:22:28;;;;;;;18.13;11.67;;;;;;;-6.56;100.00;94766.28;7398981;19;20424;-91
2023/12/02 10:25:06;;;;;;;13.30;11.17;;;;;;;-5.82;100.00;94878.09;7401906;19;20444;-91
2023/12/02 10:27:36;;;;;;;17.37;10.23;;;;;;;-5.69;100.00;94877.56;7402069;19;20390;-91
2023/12/02 10:30:03;;;;;;;15.93;10.80;;;;;;;-5.81;100.00;94879.63;7401949;19;20384;-93
2023/12/02 10:32:44;;;;;;;17.07;10.97;;;;;;;-6.46;100.00;94768.09;7398570;19;20437;-92
2023/12/02 10:35:28;;;;;;;16.47;10.03;;;;;;;-6.27;100.00;94788.91;7400267;19;20366;-91
2023/12/02 10:38:37;;;;;;;17.90;12.00;;;;;;;-5.69;100.00;94887.09;7401207;19;20386;-92
2023/12/02 10:41:26;;;;;;;14.50;10.57;;;;;;;-5.53;100.00;94890.41;7400004;19;20484;-91
2023/12/02 10:44:09;;;;;;;18.23;12.17;;;;;;;-5.92;100.00;94836.19;7401169;19;20401;-91
2023/12/02 10:46:42;;;;;;;18.93;11.43;;;;;;;-6.75;100.00;94734.44;7401251;19;20380;-92
2023/12/02 10:49:12;;;;;;;21.30;11.20;;;;;;;-6.71;100.00;94724.41;7400491;19;20381;-91
2023/12/02 10:51:42;;;;;;;16.20;10.80;;;;;;;-6.07;100.00;94830.03;7398941;19;20425;-91
2023/12/02 10:54:13;;;;;;;16.90;11.73;;;;;;;-7.00;100.00;94717.22;7400810;19;20397;-93
2023/12/02 10:56:46;;;;;;;13.17;8.30;;;;;;;-6.41;100.00;94806.66;7400725;19;20766;-92
2023/12/02 10:59:17;;;;;;;15.07;11.80;;;;;;;-6.24;100.00;94855.25;7400226;19;20887;-91
2023/12/02 11:01:56;;;;;;;18.47;11.50;;;;;;;-6.36;100.00;94824.63;7398574;19;20397;-91
2023/12/02 11:04:28;;;;;;;17.90;11.97;;;;;;;-5.82;100.00;94887.63;7400260;19;20381;-91
2023/12/02 11:07:05;;;;;;;16.37;10.40;;;;;;;-6.42;100.00;94809.47;7400256;19;20387;-91
2023/12/02 11:09:45;;;;;;;17.60;10.50;;;;;;;-5.64;100.00;94935.97;7400364;19;20372;-91
2023/12/02 11:12:33;;;;;;;21.27;11.60;;;;;;;-5.60;100.00;94949.88;7398371;19;20404;-91
2023/12/02 11:15:09;;;;;;;13.73;10.83;;;;;;;-6.25;100.00;94889.69;7399846;19;20406;-91
2023/12/02 11:18:04;;;;;;;18.10;11.40;;;;;;;-5.56;100.00;94953.47;7399453;19;20850;-90
2023/12/02 11:20:34;;;;;;;13.73;10.67;;;;;;;-5.84;100.00;94964.28;7398652;19;20393;-92